Nearby METAR Reports

 

KSJC - San Jose, California, USA
Distance from station: NE 14km
Updated: 22/09/2018 16:53
Overcast
Overcast
 Wind from calm
Wind: Calm
Temperature: 15°C
Dew Point: 13°C
Humidity: 88%
Barometer: 1015.6 hPa
Clouds: Overcast
Visibility: 11 km
Cloud details: Overcast 213 m
2018/09/22 13:53 KSJC 221353Z 00000KT 7SM OVC007 15/13 A2999 RMK AO2 SLP154 T01500133
KNUQ - Moffett Nas/Mtn, California, USA
Distance from station: N 14km
Updated: 22/09/2018 16:56
Mist, Overcast
Mist, Overcast
 Wind from calm
Wind: Calm
Temperature: 14°C
Dew Point: 13°C
Humidity: 94%
Barometer: 1015.6 hPa
Summary: Mist
Clouds: Overcast
Visibility: 10 km
Cloud details: Overcast 244 m
2018/09/22 13:56 KNUQ 221356Z 00000KT 6SM BR OVC008 14/13 A2999 RMK AO2 SLP159 T01440133 $
 
KPAO - Palo Alto, California, USA
Distance from station: NNW 23km
Updated: 22/09/2018 06:47
NOT Current
Clear
Clear
 Wind from NNW
Wind: NNW 17 km/h
Temperature: 16°C
Dew Point: 13°C
Humidity: 83%
Barometer: 1015.6 hPa
Clouds: Clear
Visibility: 16 km
2018/09/22 03:47 KPAO 220347Z 33009KT 10SM SKC 16/13 A2999 RMK LAST
KRHV - San Jose/Reid, California, USA
Distance from station: ENE 19km
Updated: 22/09/2018 16:47
Clear
Clear
 Wind from calm
Wind: Calm
Temperature: 13°C
Dew Point: 11°C
Humidity: 88%
Barometer: 1014.9 hPa
Clouds: Clear
Visibility: 11 km
2018/09/22 13:47 KRHV 221347Z 00000KT 7SM SKC 13/11 A2997
 
KOAK - Oakland, California, USA
Distance from station: NNW 50km
Updated: 22/09/2018 16:53
Overcast
Overcast
 Wind from calm
Wind: Calm
Temperature: 13°C
Dew Point: 12°C
Humidity: 94%
Barometer: 1015.9 hPa
Clouds: Overcast
Visibility: 11 km
Cloud details: Overcast 183 m
2018/09/22 13:53 KOAK 221353Z 00000KT 7SM OVC006 13/12 A3000 RMK AO2 SLP158 T01280117 $
KSQL - San Carlos Airpo, California, USA
Distance from station: NW 34km
Updated: 22/09/2018 16:55
Overcast
Overcast
 Wind from S
Wind: S 6 km/h
Temperature: 14°C
Dew Point: 13°C
Humidity: 94%
Barometer: 1015.6 hPa
Clouds: Overcast
Visibility: 11 km
Cloud details: Overcast 244 m
2018/09/22 13:55 KSQL 221355Z AUTO 18003KT 7SM OVC008 14/13 A2999 RMK AO2
 
KSFO - San Francisco, California, USA
Distance from station: NW 49km
Updated: 22/09/2018 17:25
Mist, Overcast
Mist, Overcast
 Wind from S
Wind: S 6 km/h
Temperature: 13°C
Dew Point: 12°C
Humidity: 94%
Barometer: 1015.6 hPa
Summary: Mist
Clouds: Overcast
Visibility: 6 km
Cloud details: Overcast 152 m
2018/09/22 14:25 KSFO 221425Z 17003KT 4SM BR OVC005 13/12 A2999 RMK AO2 T01280117
KE16 - San Martin, California, USA
Distance from station: ESE 43km
Updated: 22/09/2018 17:00
Fog, Overcast
Fog, Overcast
 Wind from calm
Wind: Calm
Temperature: 10°C
Dew Point: 9°C
Humidity: 94%
Barometer: 1016.3 hPa
Summary: Fog
Clouds: Overcast
Visibility: 0.4 km
Cloud details: Overcast 61 m
2018/09/22 14:00 KE16 221400Z AUTO 00000KT 1/4SM FG OVC002 10/09 A3001 RMK AO2
 
KWVI - Watsonville, California, USA
Distance from station: SSE 44km
Updated: 22/09/2018 17:22
Fog, Overcast
Fog, Overcast
 Wind from calm
Wind: Calm
Temperature: 12°C
Dew Point: 12°C
Humidity: 100%
Barometer: 1015.6 hPa
Summary: Fog
Clouds: Overcast
Visibility: 0.4 km
Cloud details: Overcast 61 m
2018/09/22 14:22 KWVI 221422Z AUTO 00000KT 1/4SM FG VV002 12/12 A2999 RMK AO2 T01170117 $
KHAF - Half Moon Bay, California, USA
Distance from station: WNW 50km
Updated: 22/09/2018 17:15
Fog, Overcast
Fog, Overcast
 Wind from ENE
Wind: ENE 7 km/h
Temperature: 10°C
Wind Chill: 9°C
Dew Point: 10°C
Humidity: 100%
Barometer: 1015.9 hPa
Summary: Fog
Clouds: Overcast
Visibility: 0.4 km
Cloud details: Overcast 61 m
2018/09/22 14:15 KHAF 221415Z AUTO 07004KT 1/4SM FG OVC002 10/10 A3000 RMK AO2
 
KHWD - Hayward, California, USA
Distance from station: N 44km
Updated: 22/09/2018 16:54
Mist, Overcast
Mist, Overcast
 Wind from calm
Wind: Calm
Temperature: 13°C
Dew Point: 11°C
Humidity: 88%
Barometer: 1015.6 hPa
Summary: Mist
Clouds: Overcast
Visibility: 6 km
Cloud details: Overcast 152 m
2018/09/22 13:54 KHWD 221354Z 00000KT 4SM BR OVC005 13/11 A2999 RMK AO2 SLP164 T01330111
KLVK - Livermore, California, USA
Distance from station: NNE 51km
Updated: 22/09/2018 16:53
Clear
Clear
 Wind from ESE
Wind: ESE 6 km/h
Temperature: 12°C
Dew Point: 8°C
Humidity: 77%
Barometer: 1014.9 hPa
Clouds: Clear
Visibility: 16 km
2018/09/22 13:53 KLVK 221353Z 12003KT 10SM CLR 12/08 A2997 RMK AO2 SLP147 T01220083